sensor_id;sensor_type;location;lat;lon;timestamp;pressure;altitude;pressure_sealevel;temperature;humidity
58243;BME280;50118;53.232;8.252;2023-08-01T00:02:05;99591.25;;;15.41;100.00
58243;BME280;50118;53.232;8.252;2023-08-01T00:04:49;99588.34;;;15.36;100.00
58243;BME280;50118;53.232;8.252;2023-08-01T00:07:21;99587.72;;;15.41;100.00
58243;BME280;50118;53.232;8.252;2023-08-01T00:09:47;99579.28;;;15.44;100.00
58243;BME280;50118;53.232;8.252;2023-08-01T00:12:15;99582.16;;;15.42;100.00
58243;BME280;50118;53.232;8.252;2023-08-01T00:14:46;99584.03;;;15.42;100.00
58243;BME280;50118;53.232;8.252;2023-08-01T00:17:32;99567.53;;;15.45;100.00
58243;BME280;50118;53.232;8.252;2023-08-01T00:19:58;99568.94;;;15.41;100.00
58243;BME280;50118;53.232;8.252;2023-08-01T00:22:23;99562.97;;;15.39;100.00
58243;BME280;50118;53.232;8.252;2023-08-01T00:24:49;99559.06;;;15.41;100.00
58243;BME280;50118;53.232;8.252;2023-08-01T00:27:14;99560.47;;;15.37;100.00
58243;BME280;50118;53.232;8.252;2023-08-01T00:29:40;99556.97;;;15.37;100.00
58243;BME280;50118;53.232;8.252;2023-08-01T00:32:06;99560.47;;;15.37;100.00
58243;BME280;50118;53.232;8.252;2023-08-01T00:34:32;99553.47;;;15.36;100.00
58243;BME280;50118;53.232;8.252;2023-08-01T00:36:57;99543.56;;;15.37;100.00
58243;BME280;50118;53.232;8.252;2023-08-01T00:39:23;99552.84;;;15.41;100.00
58243;BME280;50118;53.232;8.252;2023-08-01T00:41:49;99542.09;;;15.41;100.00
58243;BME280;50118;53.232;8.252;2023-08-01T00:44:15;99543.56;;;15.37;100.00
58243;BME280;50118;53.232;8.252;2023-08-01T00:46:40;99541.91;;;15.36;100.00
58243;BME280;50118;53.232;8.252;2023-08-01T00:49:09;99532.84;;;15.37;100.00
58243;BME280;50118;53.232;8.252;2023-08-01T00:51:44;99526.44;;;15.38;100.00
58243;BME280;50118;53.232;8.252;2023-08-01T00:54:16;99537.78;;;15.40;100.00
58243;BME280;50118;53.232;8.252;2023-08-01T00:56:42;99536.97;;;15.39;100.00
58243;BME280;50118;53.232;8.252;2023-08-01T01:02:00;99523.75;;;15.38;100.00
58243;BME280;50118;53.232;8.252;2023-08-01T01:04:27;99522.50;;;15.34;100.00
58243;BME280;50118;53.232;8.252;2023-08-01T01:07:00;99509.72;;;15.36;100.00
58243;BME280;50118;53.232;8.252;2023-08-01T01:09:29;99512.81;;;15.39;100.00
58243;BME280;50118;53.232;8.252;2023-08-01T01:11:57;99514.66;;;15.39;100.00
58243;BME280;50118;53.232;8.252;2023-08-01T01:14:23;99506.63;;;15.39;100.00
58243;BME280;50118;53.232;8.252;2023-08-01T01:17:11;99497.13;;;15.36;100.00
58243;BME280;50118;53.232;8.252;2023-08-01T01:19:37;99500.63;;;15.37;100.00
58243;BME280;50118;53.232;8.252;2023-08-01T01:22:21;99499.41;;;15.32;100.00
58243;BME280;50118;53.232;8.252;2023-08-01T01:24:56;99485.34;;;15.30;100.00
58243;BME280;50118;53.232;8.252;2023-08-01T01:27:22;99496.09;;;15.30;100.00
58243;BME280;50118;53.232;8.252;2023-08-01T01:29:49;99485.16;;;15.25;100.00
58243;BME280;50118;53.232;8.252;2023-08-01T01:32:16;99489.50;;;15.33;100.00
58243;BME280;50118;53.232;8.252;2023-08-01T01:34:42;99477.94;;;15.32;100.00
58243;BME280;50118;53.232;8.252;2023-08-01T01:37:25;99479.59;;;15.27;100.00
58243;BME280;50118;53.232;8.252;2023-08-01T01:39:51;99489.28;;;15.28;100.00
58243;BME280;50118;53.232;8.252;2023-08-01T01:42:27;99480.84;;;15.24;100.00
58243;BME280;50118;53.232;8.252;2023-08-01T01:44:53;99487.00;;;15.25;100.00
58243;BME280;50118;53.232;8.252;2023-08-01T01:47:26;99478.75;;;15.20;100.00
58243;BME280;50118;53.232;8.252;2023-08-01T01:49:54;99480.44;;;15.14;100.00
58243;BME280;50118;53.232;8.252;2023-08-01T01:52:27;99483.31;;;15.19;100.00
58243;BME280;50118;53.232;8.252;2023-08-01T01:54:53;99482.91;;;15.09;100.00
58243;BME280;50118;53.232;8.252;2023-08-01T01:57:21;99475.47;;;15.11;100.00
58243;BME280;50118;53.232;8.252;2023-08-01T01:59:47;99469.28;;;15.04;100.00
58243;BME280;50118;53.232;8.252;2023-08-01T02:02:15;99459.16;;;15.06;100.00
58243;BME280;50118;53.232;8.252;2023-08-01T02:04:41;99470.09;;;15.11;100.00
58243;BME280;50118;53.232;8.252;2023-08-01T02:07:07;99464.53;;;15.06;100.00
58243;BME280;50118;53.232;8.252;2023-08-01T02:09:33;99453.81;;;15.06;100.00
58243;BME280;50118;53.232;8.252;2023-08-01T02:12:01;99451.53;;;15.03;100.00
58243;BME280;50118;53.232;8.252;2023-08-01T02:14:27;99449.25;;;15.06;100.00
58243;BME280;50118;53.232;8.252;2023-08-01T02:19:38;99436.69;;;15.00;100.00
58243;BME280;50118;53.232;8.252;2023-08-01T02:22:32;99433.59;;;14.97;100.00
58243;BME280;50118;53.232;8.252;2023-08-01T02:25:04;99431.72;;;14.90;100.00
58243;BME280;50118;53.232;8.252;2023-08-01T02:27:29;99424.69;;;14.89;100.00
58243;BME280;50118;53.232;8.252;2023-08-01T02:29:55;99426.78;;;14.87;100.00
58243;BME280;50118;53.232;8.252;2023-08-01T02:32:21;99420.59;;;14.80;100.00
58243;BME280;50118;53.232;8.252;2023-08-01T02:34:47;99426.16;;;14.85;100.00
58243;BME280;50118;53.232;8.252;2023-08-01T02:37:31;99420.16;;;14.70;100.00
58243;BME280;50118;53.232;8.252;2023-08-01T02:39:56;99421.38;;;14.61;100.00
58243;BME280;50118;53.232;8.252;2023-08-01T02:42:22;99420.09;;;14.56;100.00
58243;BME280;50118;53.232;8.252;2023-08-01T02:44:48;99414.53;;;14.51;100.00
58243;BME280;50118;53.232;8.252;2023-08-01T02:47:13;99411.84;;;14.51;100.00
58243;BME280;50118;53.232;8.252;2023-08-01T02:52:24;99408.13;;;14.46;100.00
58243;BME280;50118;53.232;8.252;2023-08-01T02:54:49;99409.97;;;14.45;100.00
58243;BME280;50118;53.232;8.252;2023-08-01T02:57:15;99414.31;;;14.46;100.00
58243;BME280;50118;53.232;8.252;2023-08-01T02:59:41;99404.00;;;14.43;100.00
58243;BME280;50118;53.232;8.252;2023-08-01T03:02:09;99406.69;;;14.43;100.00
58243;BME280;50118;53.232;8.252;2023-08-01T03:04:34;99392.88;;;14.46;100.00
58243;BME280;50118;53.232;8.252;2023-08-01T03:07:01;99401.56;;;14.55;100.00
58243;BME280;50118;53.232;8.252;2023-08-01T03:09:48;99398.06;;;14.54;100.00
58243;BME280;50118;53.232;8.252;2023-08-01T03:12:16;99401.53;;;14.48;100.00
58243;BME280;50118;53.232;8.252;2023-08-01T03:14:41;99402.16;;;14.50;100.00
58243;BME280;50118;53.232;8.252;2023-08-01T03:17:08;99400.34;;;14.57;100.00
58243;BME280;50118;53.232;8.252;2023-08-01T03:19:43;99402.00;;;14.59;100.00
58243;BME280;50118;53.232;8.252;2023-08-01T03:22:18;99396.63;;;14.59;100.00
58243;BME280;50118;53.232;8.252;2023-08-01T03:24:44;99396.81;;;14.57;100.00
58243;BME280;50118;53.232;8.252;2023-08-01T03:27:21;99407.72;;;14.55;100.00
58243;BME280;50118;53.232;8.252;2023-08-01T03:29:46;99400.72;;;14.54;100.00
58243;BME280;50118;53.232;8.252;2023-08-01T03:32:12;99405.25;;;14.54;100.00
58243;BME280;50118;53.232;8.252;2023-08-01T03:34:40;99413.09;;;14.55;100.00
58243;BME280;50118;53.232;8.252;2023-08-01T03:37:06;99413.09;;;14.55;100.00
58243;BME280;50118;53.232;8.252;2023-08-01T03:39:32;99416.41;;;14.57;100.00
58243;BME280;50118;53.232;8.252;2023-08-01T03:41:57;99417.63;;;14.55;100.00
58243;BME280;50118;53.232;8.252;2023-08-01T03:44:43;99423.44;;;14.59;100.00
58243;BME280;50118;53.232;8.252;2023-08-01T03:47:24;99425.50;;;14.63;100.00
58243;BME280;50118;53.232;8.252;2023-08-01T03:50:22;99410.88;;;14.66;100.00
58243;BME280;50118;53.232;8.252;2023-08-01T03:52:50;99408.56;;;14.49;100.00
58243;BME280;50118;53.232;8.252;2023-08-01T03:55:16;99406.06;;;14.41;100.00
58243;BME280;50118;53.232;8.252;2023-08-01T03:57:48;99410.63;;;14.47;100.00
58243;BME280;50118;53.232;8.252;2023-08-01T04:00:14;99406.06;;;14.41;100.00
58243;BME280;50118;53.232;8.252;2023-08-01T04:02:44;99410.59;;;14.34;100.00
58243;BME280;50118;53.232;8.252;2023-08-01T04:05:29;99405.00;;;14.29;100.00
58243;BME280;50118;53.232;8.252;2023-08-01T04:08:14;99403.75;;;14.25;100.00
58243;BME280;50118;53.232;8.252;2023-08-01T04:10:40;99416.28;;;14.17;100.00
58243;BME280;50118;53.232;8.252;2023-08-01T04:13:06;99409.50;;;14.22;100.00
58243;BME280;50118;53.232;8.252;2023-08-01T04:15:31;99411.75;;;14.18;100.00
58243;BME280;50118;53.232;8.252;2023-08-01T04:17:57;99408.63;;;14.08;100.00
58243;BME280;50118;53.232;8.252;2023-08-01T04:20:22;99409.69;;;14.13;100.00
58243;BME280;50118;53.232;8.252;2023-08-01T04:26:16;99418.75;;;14.12;100.00
58243;BME280;50118;53.232;8.252;2023-08-01T04:29:46;99408.66;;;14.14;100.00
58243;BME280;50118;53.232;8.252;2023-08-01T04:32:26;99416.28;;;14.17;100.00
58243;BME280;50118;53.232;8.252;2023-08-01T04:34:51;99417.72;;;14.13;100.00
58243;BME280;50118;53.232;8.252;2023-08-01T04:37:41;99417.72;;;14.13;100.00
58243;BME280;50118;53.232;8.252;2023-08-01T04:40:13;99416.69;;;14.14;100.00
58243;BME280;50118;53.232;8.252;2023-08-01T04:42:47;99416.47;;;14.09;100.00
58243;BME280;50118;53.232;8.252;2023-08-01T04:45:13;99411.72;;;14.11;100.00
58243;BME280;50118;53.232;8.252;2023-08-01T04:47:42;99408.69;;;14.21;100.00
58243;BME280;50118;53.232;8.252;2023-08-01T04:50:13;99407.03;;;14.27;100.00
58243;BME280;50118;53.232;8.252;2023-08-01T04:52:48;99401.47;;;14.22;100.00
58243;BME280;50118;53.232;8.252;2023-08-01T04:55:14;99397.38;;;14.26;100.00
58243;BME280;50118;53.232;8.252;2023-08-01T04:57:42;99401.69;;;14.27;100.00
58243;BME280;50118;53.232;8.252;2023-08-01T05:00:09;99405.63;;;14.31;100.00
58243;BME280;50118;53.232;8.252;2023-08-01T05:02:35;99395.56;;;14.46;100.00
58243;BME280;50118;53.232;8.252;2023-08-01T05:05:16;99396.63;;;14.59;100.00
58243;BME280;50118;53.232;8.252;2023-08-01T05:07:47;99404.28;;;14.62;100.00
58243;BME280;50118;53.232;8.252;2023-08-01T05:10:35;99409.88;;;14.80;100.00
58243;BME280;50118;53.232;8.252;2023-08-01T05:13:10;99400.38;;;14.84;100.00
58243;BME280;50118;53.232;8.252;2023-08-01T05:15:35;99413.38;;;14.87;100.00
58243;BME280;50118;53.232;8.252;2023-08-01T05:18:04;99422.22;;;15.41;100.00
58243;BME280;50118;53.232;8.252;2023-08-01T05:20:29;99417.84;;;16.19;100.00
58243;BME280;50118;53.232;8.252;2023-08-01T05:23:08;99410.47;;;16.46;100.00
58243;BME280;50118;53.232;8.252;2023-08-01T05:25:34;99408.25;;;16.43;100.00
58243;BME280;50118;53.232;8.252;2023-08-01T05:27:59;99409.63;;;16.52;100.00
58243;BME280;50118;53.232;8.252;2023-08-01T05:30:25;99402.03;;;16.74;100.00
58243;BME280;50118;53.232;8.252;2023-08-01T05:32:50;99409.69;;;17.46;100.00
58243;BME280;50118;53.232;8.252;2023-08-01T05:35:17;99399.09;;;18.07;100.00
58243;BME280;50118;53.232;8.252;2023-08-01T05:37:43;99400.97;;;18.06;100.00
58243;BME280;50118;53.232;8.252;2023-08-01T05:40:09;99401.84;;;18.91;100.00
58243;BME280;50118;53.232;8.252;2023-08-01T05:42:34;99402.53;;;19.93;100.00
58243;BME280;50118;53.232;8.252;2023-08-01T05:45:00;99406.16;;;20.56;100.00
58243;BME280;50118;53.232;8.252;2023-08-01T05:47:25;99398.50;;;20.99;97.99
58243;BME280;50118;53.232;8.252;2023-08-01T05:49:51;99407.47;;;20.82;100.00
58243;BME280;50118;53.232;8.252;2023-08-01T05:52:16;99409.50;;;20.92;98.38
58243;BME280;50118;53.232;8.252;2023-08-01T05:54:42;99413.34;;;20.79;100.00
58243;BME280;50118;53.232;8.252;2023-08-01T05:57:07;99409.03;;;19.68;100.00
58243;BME280;50118;53.232;8.252;2023-08-01T05:59:33;99409.47;;;18.94;100.00
58243;BME280;50118;53.232;8.252;2023-08-01T06:01:59;99414.59;;;18.42;100.00
58243;BME280;50118;53.232;8.252;2023-08-01T06:04:24;99409.69;;;18.51;100.00
58243;BME280;50118;53.232;8.252;2023-08-01T06:06:50;99402.41;;;18.81;100.00
58243;BME280;50118;53.232;8.252;2023-08-01T06:09:15;99415.09;;;18.20;100.00
58243;BME280;50118;53.232;8.252;2023-08-01T06:11:40;99408.09;;;18.01;100.00
58243;BME280;50118;53.232;8.252;2023-08-01T06:14:06;99410.28;;;17.48;100.00
58243;BME280;50118;53.232;8.252;2023-08-01T06:16:31;99405.97;;;17.04;100.00
58243;BME280;50118;53.232;8.252;2023-08-01T06:18:58;99404.75;;;16.68;100.00
58243;BME280;50118;53.232;8.252;2023-08-01T06:21:24;99409.69;;;16.39;100.00
58243;BME280;50118;53.232;8.252;2023-08-01T06:23:50;99412.88;;;16.22;100.00
58243;BME280;50118;53.232;8.252;2023-08-01T06:26:28;99422.13;;;15.88;100.00
58243;BME280;50118;53.232;8.252;2023-08-01T06:29:48;99424.59;;;15.83;100.00
58243;BME280;50118;53.232;8.252;2023-08-01T06:32:07;99422.97;;;15.82;100.00
58243;BME280;50118;53.232;8.252;2023-08-01T06:34:32;99424.41;;;15.78;100.00
58243;BME280;50118;53.232;8.252;2023-08-01T06:37:07;99429.97;;;15.83;100.00
58243;BME280;50118;53.232;8.252;2023-08-01T06:39:55;99424.38;;;15.91;100.00
58243;BME280;50118;53.232;8.252;2023-08-01T06:42:20;99422.31;;;15.93;100.00
58243;BME280;50118;53.232;8.252;2023-08-01T06:45:05;99419.03;;;16.36;100.00
58243;BME280;50118;53.232;8.252;2023-08-01T06:47:31;99420.63;;;16.76;100.00
58243;BME280;50118;53.232;8.252;2023-08-01T06:49:56;99425.31;;;17.38;100.00
58243;BME280;50118;53.232;8.252;2023-08-01T06:52:22;99418.09;;;18.31;100.00
58243;BME280;50118;53.232;8.252;2023-08-01T06:54:47;99425.72;;;18.76;100.00
58243;BME280;50118;53.232;8.252;2023-08-01T06:57:13;99433.22;;;18.43;100.00
58243;BME280;50118;53.232;8.252;2023-08-01T06:59:38;99436.69;;;18.02;100.00
58243;BME280;50118;53.232;8.252;2023-08-01T07:02:13;99449.16;;;17.34;100.00
58243;BME280;50118;53.232;8.252;2023-08-01T07:04:40;99442.09;;;16.83;100.00
58243;BME280;50118;53.232;8.252;2023-08-01T07:07:06;99448.16;;;16.71;100.00
58243;BME280;50118;53.232;8.252;2023-08-01T07:09:34;99449.00;;;16.33;100.00
58243;BME280;50118;53.232;8.252;2023-08-01T07:12:20;99444.16;;;17.12;100.00
58243;BME280;50118;53.232;8.252;2023-08-01T07:14:49;99446.63;;;17.14;100.00
58243;BME280;50118;53.232;8.252;2023-08-01T07:17:25;99459.13;;;17.52;100.00
58243;BME280;50118;53.232;8.252;2023-08-01T07:19:50;99456.84;;;17.55;100.00
58243;BME280;50118;53.232;8.252;2023-08-01T07:22:16;99459.81;;;17.47;100.00
58243;BME280;50118;53.232;8.252;2023-08-01T07:24:41;99455.03;;;17.49;100.00
58243;BME280;50118;53.232;8.252;2023-08-01T07:27:16;99446.81;;;17.63;100.00
58243;BME280;50118;53.232;8.252;2023-08-01T07:29:43;99446.28;;;17.54;100.00
58243;BME280;50118;53.232;8.252;2023-08-01T07:32:08;99446.72;;;17.95;100.00
58243;BME280;50118;53.232;8.252;2023-08-01T07:34:34;99447.34;;;18.57;100.00
58243;BME280;50118;53.232;8.252;2023-08-01T07:36:59;99442.25;;;18.79;100.00
58243;BME280;50118;53.232;8.252;2023-08-01T07:39:24;99450.09;;;18.69;100.00
58243;BME280;50118;53.232;8.252;2023-08-01T07:41:50;99448.59;;;18.73;100.00
58243;BME280;50118;53.232;8.252;2023-08-01T07:44:15;99452.22;;;18.79;100.00
58243;BME280;50118;53.232;8.252;2023-08-01T07:46:41;99445.41;;;18.64;100.00
58243;BME280;50118;53.232;8.252;2023-08-01T07:49:06;99440.19;;;18.51;100.00
58243;BME280;50118;53.232;8.252;2023-08-01T07:51:32;99441.72;;;18.59;100.00
58243;BME280;50118;53.232;8.252;2023-08-01T07:53:59;99435.69;;;18.15;100.00
58243;BME280;50118;53.232;8.252;2023-08-01T07:56:25;99441.84;;;18.22;100.00
58243;BME280;50118;53.232;8.252;2023-08-01T07:58:50;99448.59;;;18.43;100.00
58243;BME280;50118;53.232;8.252;2023-08-01T08:01:18;99445.66;;;18.14;100.00
58243;BME280;50118;53.232;8.252;2023-08-01T08:03:44;99438.44;;;18.26;100.00
58243;BME280;50118;53.232;8.252;2023-08-01T08:06:09;99452.75;;;18.57;100.00
58243;BME280;50118;53.232;8.252;2023-08-01T08:08:35;99444.56;;;18.34;100.00
58243;BME280;50118;53.232;8.252;2023-08-01T08:11:02;99440.19;;;18.81;100.00
58243;BME280;50118;53.232;8.252;2023-08-01T08:13:28;99444.66;;;18.57;100.00
58243;BME280;50118;53.232;8.252;2023-08-01T08:15:57;99436.84;;;19.10;100.00
58243;BME280;50118;53.232;8.252;2023-08-01T08:18:23;99442.88;;;18.81;100.00
58243;BME280;50118;53.232;8.252;2023-08-01T08:20:49;99444.25;;;19.14;100.00
58243;BME280;50118;53.232;8.252;2023-08-01T08:23:14;99451.16;;;19.46;100.00
58243;BME280;50118;53.232;8.252;2023-08-01T08:25:41;99448.22;;;19.12;100.00
58243;BME280;50118;53.232;8.252;2023-08-01T08:28:07;99442.47;;;19.67;99.48
58243;BME280;50118;53.232;8.252;2023-08-01T08:30:33;99444.19;;;20.09;98.88
58243;BME280;50118;53.232;8.252;2023-08-01T08:32:58;99443.41;;;20.66;90.98
58243;BME280;50118;53.232;8.252;2023-08-01T08:35:29;99435.59;;;21.15;88.55
58243;BME280;50118;53.232;8.252;2023-08-01T08:37:55;99453.16;;;20.38;87.97
58243;BME280;50118;53.232;8.252;2023-08-01T08:40:20;99442.16;;;20.28;94.10
58243;BME280;50118;53.232;8.252;2023-08-01T08:42:46;99440.50;;;20.27;90.77
58243;BME280;50118;53.232;8.252;2023-08-01T08:45:14;99441.22;;;20.22;91.03
58243;BME280;50118;53.232;8.252;2023-08-01T08:47:44;99430.34;;;20.92;87.19
58243;BME280;50118;53.232;8.252;2023-08-01T08:50:14;99428.03;;;21.34;85.74
58243;BME280;50118;53.232;8.252;2023-08-01T08:52:40;99443.94;;;21.31;82.00
58243;BME280;50118;53.232;8.252;2023-08-01T08:55:15;99441.78;;;20.82;86.01
58243;BME280;50118;53.232;8.252;2023-08-01T08:57:41;99449.72;;;20.43;87.18
58243;BME280;50118;53.232;8.252;2023-08-01T09:00:08;99455.88;;;19.86;91.18
58243;BME280;50118;53.232;8.252;2023-08-01T09:02:33;99448.47;;;19.69;93.87
58243;BME280;50118;53.232;8.252;2023-08-01T09:04:59;99455.66;;;20.28;91.15
58243;BME280;50118;53.232;8.252;2023-08-01T09:07:26;99443.19;;;19.86;88.31
58243;BME280;50118;53.232;8.252;2023-08-01T09:09:54;99451.41;;;19.56;89.66
58243;BME280;50118;53.232;8.252;2023-08-01T09:12:20;99444.47;;;19.72;89.19
58243;BME280;50118;53.232;8.252;2023-08-01T09:14:49;99444.38;;;19.31;90.99
58243;BME280;50118;53.232;8.252;2023-08-01T09:17:15;99451.06;;;19.52;89.22
58243;BME280;50118;53.232;8.252;2023-08-01T09:19:44;99446.13;;;19.37;92.88
58243;BME280;50118;53.232;8.252;2023-08-01T09:22:13;99451.41;;;19.09;90.43
58243;BME280;50118;53.232;8.252;2023-08-01T09:24:50;99460.56;;;18.77;95.19
58243;BME280;50118;53.232;8.252;2023-08-01T09:27:15;99455.53;;;18.20;100.00
58243;BME280;50118;53.232;8.252;2023-08-01T09:29:41;99461.41;;;18.47;100.00
58243;BME280;50118;53.232;8.252;2023-08-01T09:32:13;99448.03;;;18.83;100.00
58243;BME280;50118;53.232;8.252;2023-08-01T09:34:40;99448.13;;;19.54;99.11
58243;BME280;50118;53.232;8.252;2023-08-01T09:37:06;99453.25;;;20.14;93.79
58243;BME280;50118;53.232;8.252;2023-08-01T09:39:31;99448.22;;;20.93;88.70
58243;BME280;50118;53.232;8.252;2023-08-01T09:41:57;99444.66;;;21.43;85.39
58243;BME280;50118;53.232;8.252;2023-08-01T09:44:23;99444.44;;;21.27;82.08
58243;BME280;50118;53.232;8.252;2023-08-01T09:47:01;99430.31;;;20.75;81.93
58243;BME280;50118;53.232;8.252;2023-08-01T09:49:28;99446.47;;;20.58;82.92
58243;BME280;50118;53.232;8.252;2023-08-01T09:51:54;99447.44;;;19.47;88.42
58243;BME280;50118;53.232;8.252;2023-08-01T09:54:20;99454.22;;;18.72;93.93
58243;BME280;50118;53.232;8.252;2023-08-01T09:56:49;99448.78;;;18.60;98.36
58243;BME280;50118;53.232;8.252;2023-08-01T09:59:19;99440.59;;;18.66;98.44
58243;BME280;50118;53.232;8.252;2023-08-01T10:01:47;99446.84;;;19.21;98.45
58243;BME280;50118;53.232;8.252;2023-08-01T10:04:20;99453.25;;;18.36;100.00
58243;BME280;50118;53.232;8.252;2023-08-01T10:06:50;99447.16;;;18.40;100.00
58243;BME280;50118;53.232;8.252;2023-08-01T10:09:19;99456.72;;;18.24;100.00
58243;BME280;50118;53.232;8.252;2023-08-01T10:11:46;99450.81;;;17.10;100.00
58243;BME280;50118;53.232;8.252;2023-08-01T10:14:17;99441.50;;;16.80;100.00
58243;BME280;50118;53.232;8.252;2023-08-01T10:16:51;99457.28;;;16.70;100.00
58243;BME280;50118;53.232;8.252;2023-08-01T10:19:17;99452.59;;;16.59;100.00
58243;BME280;50118;53.232;8.252;2023-08-01T10:21:43;99446.69;;;16.75;100.00
58243;BME280;50118;53.232;8.252;2023-08-01T10:24:18;99453.41;;;17.85;100.00
58243;BME280;50118;53.232;8.252;2023-08-01T10:26:45;99442.09;;;18.93;100.00
58243;BME280;50118;53.232;8.252;2023-08-01T10:29:11;99451.59;;;18.65;100.00
58243;BME280;50118;53.232;8.252;2023-08-01T10:31:36;99458.97;;;18.88;100.00
58243;BME280;50118;53.232;8.252;2023-08-01T10:34:13;99461.84;;;18.44;100.00
58243;BME280;50118;53.232;8.252;2023-08-01T10:36:38;99451.84;;;18.15;100.00
58243;BME280;50118;53.232;8.252;2023-08-01T10:39:04;99446.56;;;17.89;100.00
58243;BME280;50118;53.232;8.252;2023-08-01T10:41:32;99457.13;;;17.22;100.00
58243;BME280;50118;53.232;8.252;2023-08-01T10:44:13;99457.97;;;17.85;100.00
58243;BME280;50118;53.232;8.252;2023-08-01T10:46:55;99458.03;;;18.94;100.00
58243;BME280;50118;53.232;8.252;2023-08-01T10:52:01;99455.63;;;19.99;100.00
58243;BME280;50118;53.232;8.252;2023-08-01T10:54:27;99463.03;;;19.80;100.00
58243;BME280;50118;53.232;8.252;2023-08-01T10:56:55;99460.94;;;19.47;100.00
58243;BME280;50118;53.232;8.252;2023-08-01T10:59:21;99460.63;;;18.89;100.00
58243;BME280;50118;53.232;8.252;2023-08-01T11:01:52;99468.06;;;19.06;100.00
58243;BME280;50118;53.232;8.252;2023-08-01T11:04:19;99462.94;;;19.63;100.00
58243;BME280;50118;53.232;8.252;2023-08-01T11:06:46;99455.16;;;19.08;100.00
58243;BME280;50118;53.232;8.252;2023-08-01T11:09:21;99460.53;;;19.08;100.00
58243;BME280;50118;53.232;8.252;2023-08-01T11:11:50;99466.00;;;18.59;100.00
58243;BME280;50118;53.232;8.252;2023-08-01T11:14:16;99467.78;;;18.16;100.00
58243;BME280;50118;53.232;8.252;2023-08-01T11:16:43;99470.50;;;18.16;100.00
58243;BME280;50118;53.232;8.252;2023-08-01T11:19:19;99474.31;;;18.08;100.00
58243;BME280;50118;53.232;8.252;2023-08-01T11:21:45;99471.41;;;17.91;100.00
58243;BME280;50118;53.232;8.252;2023-08-01T11:24:11;99481.88;;;18.00;100.00
58243;BME280;50118;53.232;8.252;2023-08-01T11:26:41;99483.81;;;17.24;100.00
58243;BME280;50118;53.232;8.252;2023-08-01T11:29:20;99488.53;;;17.03;100.00
58243;BME280;50118;53.232;8.252;2023-08-01T11:38:39;99502.53;;;16.73;100.00
58243;BME280;50118;53.232;8.252;2023-08-01T11:43:51;99498.41;;;16.32;100.00
58243;BME280;50118;53.232;8.252;2023-08-01T11:46:38;99501.38;;;16.62;100.00
58243;BME280;50118;53.232;8.252;2023-08-01T11:49:13;99486.19;;;17.39;100.00
58243;BME280;50118;53.232;8.252;2023-08-01T11:51:41;99496.31;;;18.24;100.00
58243;BME280;50118;53.232;8.252;2023-08-01T11:54:07;99503.91;;;18.94;100.00
58243;BME280;50118;53.232;8.252;2023-08-01T11:56:33;99510.09;;;19.37;100.00
58243;BME280;50118;53.232;8.252;2023-08-01T11:58:58;99518.69;;;19.69;100.00
58243;BME280;50118;53.232;8.252;2023-08-01T12:01:25;99522.03;;;20.47;100.00
58243;BME280;50118;53.232;8.252;2023-08-01T12:03:55;99520.38;;;20.46;100.00
58243;BME280;50118;53.232;8.252;2023-08-01T12:06:25;99526.47;;;19.77;100.00
58243;BME280;50118;53.232;8.252;2023-08-01T12:08:52;99521.00;;;19.30;100.00
58243;BME280;50118;53.232;8.252;2023-08-01T12:11:25;99531.31;;;18.61;100.00
58243;BME280;50118;53.232;8.252;2023-08-01T12:16:26;99524.69;;;18.75;100.00
58243;BME280;50118;53.232;8.252;2023-08-01T12:18:51;99525.50;;;19.36;100.00
58243;BME280;50118;53.232;8.252;2023-08-01T12:21:17;99536.59;;;18.86;100.00
58243;BME280;50118;53.232;8.252;2023-08-01T12:23:42;99541.72;;;18.57;100.00
58243;BME280;50118;53.232;8.252;2023-08-01T12:26:08;99546.47;;;18.43;100.00
58243;BME280;50118;53.232;8.252;2023-08-01T12:28:35;99552.53;;;18.02;100.00
58243;BME280;50118;53.232;8.252;2023-08-01T12:31:00;99562.25;;;18.03;100.00
58243;BME280;50118;53.232;8.252;2023-08-01T12:33:26;99566.72;;;17.90;100.00
58243;BME280;50118;53.232;8.252;2023-08-01T12:35:51;99565.41;;;18.00;100.00
58243;BME280;50118;53.232;8.252;2023-08-01T12:38:16;99563.63;;;18.12;100.00
58243;BME280;50118;53.232;8.252;2023-08-01T12:40:42;99564.56;;;18.73;100.00
58243;BME280;50118;53.232;8.252;2023-08-01T12:43:07;99565.00;;;19.19;100.00
58243;BME280;50118;53.232;8.252;2023-08-01T12:45:33;99561.34;;;19.13;100.00
58243;BME280;50118;53.232;8.252;2023-08-01T12:47:58;99573.69;;;19.21;100.00
58243;BME280;50118;53.232;8.252;2023-08-01T12:50:24;99574.94;;;19.49;100.00
58243;BME280;50118;53.232;8.252;2023-08-01T12:52:49;99594.44;;;19.63;100.00
58243;BME280;50118;53.232;8.252;2023-08-01T12:55:15;99588.75;;;18.80;100.00
58243;BME280;50118;53.232;8.252;2023-08-01T12:57:41;99586.06;;;18.24;100.00
58243;BME280;50118;53.232;8.252;2023-08-01T13:00:07;99588.41;;;18.58;100.00
58243;BME280;50118;53.232;8.252;2023-08-01T13:02:36;99584.84;;;18.94;100.00
58243;BME280;50118;53.232;8.252;2023-08-01T13:05:02;99577.06;;;18.86;100.00
58243;BME280;50118;53.232;8.252;2023-08-01T13:07:28;99578.03;;;19.22;100.00
58243;BME280;50118;53.232;8.252;2023-08-01T13:09:56;99583.53;;;19.69;100.00
58243;BME280;50118;53.232;8.252;2023-08-01T13:12:22;99577.47;;;20.21;100.00
58243;BME280;50118;53.232;8.252;2023-08-01T13:14:47;99576.84;;;20.31;100.00
58243;BME280;50118;53.232;8.252;2023-08-01T13:17:13;99574.44;;;20.70;100.00
58243;BME280;50118;53.232;8.252;2023-08-01T13:19:38;99582.00;;;20.44;100.00
58243;BME280;50118;53.232;8.252;2023-08-01T13:22:05;99585.56;;;20.33;100.00
58243;BME280;50118;53.232;8.252;2023-08-01T13:24:31;99580.34;;;19.49;100.00
58243;BME280;50118;53.232;8.252;2023-08-01T13:26:56;99579.97;;;19.45;100.00